createdAt,value
2016-12-16T00:00:58.863Z,42.07
2016-12-16T00:01:58.845Z,44.04
2016-12-16T00:02:59.471Z,45.74
2016-12-16T00:03:58.805Z,46.88
2016-12-16T00:04:58.784Z,46.97
2016-12-16T00:05:59.011Z,44.7
2016-12-16T00:06:58.751Z,44.23
2016-12-16T00:07:58.729Z,44.14
2016-12-16T00:08:58.710Z,45.65
2016-12-16T00:09:58.698Z,47.16
2016-12-16T00:10:58.670Z,47.06
2016-12-16T00:11:58.652Z,47.25
2016-12-16T00:12:58.635Z,47.44
2016-12-16T00:13:58.615Z,48.29
2016-12-16T00:14:58.596Z,49.42
2016-12-16T00:15:58.578Z,49.7
2016-12-16T00:16:58.557Z,50.08
2016-12-16T00:17:59.012Z,50.84
2016-12-16T00:18:58.520Z,50.93
2016-12-16T00:19:58.500Z,50.36
2016-12-16T00:20:58.861Z,48.76
2016-12-16T00:21:58.460Z,46.69
2016-12-16T00:22:58.441Z,43.38
2016-12-16T00:23:58.799Z,39.99
2016-12-16T00:24:58.403Z,38.95
2016-12-16T00:25:58.390Z,39.14
2016-12-16T00:26:58.365Z,40.74
2016-12-16T00:27:58.346Z,42.16
2016-12-16T00:28:58.330Z,43.76
2016-12-16T00:29:58.309Z,44.42
2016-12-16T00:30:58.288Z,46.22
2016-12-16T00:31:58.270Z,48
2016-12-16T00:32:58.251Z,49.42
2016-12-16T00:33:58.231Z,49.7
2016-12-16T00:34:58.212Z,51.03
2016-12-16T00:35:58.192Z,50.18
2016-12-16T00:36:58.174Z,49.51
2016-12-16T00:37:58.157Z,49.7
2016-12-16T00:38:58.495Z,50.55
2016-12-16T00:39:58.213Z,51.5
2016-12-16T00:40:58.098Z,52.91
2016-12-16T00:41:58.081Z,53.85
2016-12-16T00:42:58.519Z,51.21
2016-12-16T00:43:58.039Z,49.7
2016-12-16T00:44:58.021Z,49.7
2016-12-16T00:45:58.384Z,50.08
2016-12-16T00:46:57.983Z,51.31
2016-12-16T00:47:57.966Z,52.81
2016-12-16T00:48:58.101Z,50.93
2016-12-16T00:49:57.924Z,51.87
2016-12-16T00:50:57.907Z,50.36
2016-12-16T00:51:58.191Z,50.27
2016-12-16T00:52:57.868Z,50.08
2016-12-16T00:53:57.849Z,49.8
2016-12-16T00:54:57.828Z,50.27
2016-12-16T00:55:57.897Z,52.15
2016-12-16T00:56:57.792Z,54.51
2016-12-16T00:57:57.772Z,53.57
2016-12-16T00:58:57.756Z,54.7
2016-12-16T00:59:57.738Z,53.85
2016-12-16T01:00:57.715Z,52.53
2016-12-16T01:01:57.697Z,52.53
2016-12-16T01:02:57.678Z,52.91
2016-12-16T01:03:57.660Z,53.95
2016-12-16T01:04:58.088Z,54.33
2016-12-16T01:05:57.619Z,55.46
2016-12-16T01:06:57.755Z,56.12
2016-12-16T01:07:57.581Z,56.02
2016-12-16T01:08:57.564Z,54.89
2016-12-16T01:09:57.688Z,55.65
2016-12-16T01:10:57.527Z,54.99
2016-12-16T01:11:57.508Z,54.8
2016-12-16T01:12:57.692Z,54.8
2016-12-16T01:13:57.482Z,54.61
2016-12-16T01:14:57.447Z,54.61
2016-12-16T01:15:57.429Z,54.7
2016-12-16T01:16:57.846Z,55.18
2016-12-16T01:17:57.388Z,54.33
2016-12-16T01:18:57.372Z,55.65
2016-12-16T01:19:57.486Z,55.74
2016-12-16T01:20:57.333Z,56.02
2016-12-16T01:21:57.313Z,58
2016-12-16T01:22:57.728Z,56.77
2016-12-16T01:23:57.324Z,55.36
2016-12-16T01:24:57.255Z,56.12
2016-12-16T01:25:57.499Z,54.99
2016-12-16T01:26:57.583Z,55.55
2016-12-16T01:27:57.194Z,54.99
2016-12-16T01:28:57.179Z,55.55
2016-12-16T01:29:57.586Z,56.02
2016-12-16T01:30:57.141Z,55.55
2016-12-16T01:31:57.121Z,54.99
2016-12-16T01:32:57.514Z,55.46
2016-12-16T01:33:57.083Z,56.68
2016-12-16T01:34:57.062Z,55.65
2016-12-16T01:35:57.474Z,54.33
2016-12-16T01:36:57.134Z,53.19
2016-12-16T01:37:57.001Z,54.61
2016-12-16T01:38:56.985Z,54.51
2016-12-16T01:39:56.964Z,55.18
2016-12-16T01:40:56.945Z,55.18
2016-12-16T01:41:56.927Z,54.89
2016-12-16T01:42:56.906Z,55.55
2016-12-16T01:43:56.888Z,55.08
2016-12-16T01:44:56.867Z,53
2016-12-16T01:45:56.849Z,52.72
2016-12-16T01:46:56.828Z,53.19
2016-12-16T01:47:56.811Z,53.47
2016-12-16T01:48:56.789Z,53.1
2016-12-16T01:49:56.772Z,53.57
2016-12-16T01:50:56.751Z,54.51
2016-12-16T01:51:56.731Z,53.66
2016-12-16T01:52:56.928Z,51.5
2016-12-16T01:53:56.692Z,50.65
2016-12-16T01:54:57.043Z,49.61
2016-12-16T01:55:56.653Z,48
2016-12-16T01:56:56.634Z,48.38
2016-12-16T01:57:57.021Z,49.89
2016-12-16T01:58:56.596Z,51.4
2016-12-16T01:59:56.575Z,48.66
2016-12-16T02:00:56.567Z,47.25
2016-12-16T02:01:56.796Z,48.19
2016-12-16T02:02:56.842Z,47.16
2016-12-16T02:03:57.088Z,46.69
2016-12-16T02:04:56.480Z,46.97
2016-12-16T02:05:56.461Z,47.44
2016-12-16T02:06:56.862Z,49.14
2016-12-16T02:07:56.422Z,49.61
2016-12-16T02:08:56.407Z,48.66
2016-12-16T02:09:56.529Z,47.91
2016-12-16T02:10:56.364Z,48.76
2016-12-16T02:11:56.343Z,49.61
2016-12-16T02:12:56.730Z,49.7
2016-12-16T02:13:56.309Z,51.31
2016-12-16T02:14:56.285Z,51.5
2016-12-16T02:15:56.589Z,50.65
2016-12-16T02:16:56.249Z,50.93
2016-12-16T02:17:56.229Z,49.61
2016-12-16T02:18:56.421Z,49.51
2016-12-16T02:19:56.190Z,48.76
2016-12-16T02:20:56.174Z,49.51
2016-12-16T02:21:56.333Z,49.7
2016-12-16T02:22:56.136Z,50.18
2016-12-16T02:23:56.377Z,50.18
2016-12-16T02:24:56.093Z,49.42
2016-12-16T02:25:56.073Z,49.7
2016-12-16T02:26:56.054Z,50.74
2016-12-16T02:27:56.036Z,51.87
2016-12-16T02:28:56.017Z,52.81
2016-12-16T02:29:55.999Z,53.29
2016-12-16T02:30:55.976Z,53.47
2016-12-16T02:31:55.957Z,54.04
2016-12-16T02:32:55.943Z,48.47
2016-12-16T02:33:55.923Z,48.57
2016-12-16T02:34:55.902Z,48.38
2016-12-16T02:35:55.882Z,45.55
2016-12-16T02:36:55.862Z,44.99
2016-12-16T02:37:55.843Z,43.76
2016-12-16T02:38:56.081Z,43.1
2016-12-16T02:39:55.825Z,44.8
2016-12-16T02:40:55.787Z,47.25
2016-12-16T02:41:55.766Z,48.47
2016-12-16T02:42:55.877Z,48.47
2016-12-16T02:43:55.732Z,47.63
2016-12-16T02:44:58.741Z,49.42
2016-12-16T02:45:55.804Z,49.7
2016-12-16T02:46:55.670Z,50.74
2016-12-16T02:47:55.651Z,50.84
2016-12-16T02:48:55.835Z,50.74
2016-12-16T02:49:55.613Z,51.4
2016-12-16T02:50:55.593Z,52.34
2016-12-16T02:51:55.999Z,53.76
2016-12-16T02:52:55.556Z,53.66
2016-12-16T02:53:55.535Z,53.76
2016-12-16T02:54:55.544Z,53.76
2016-12-16T02:55:55.497Z,52.62
2016-12-16T02:56:55.478Z,52.53
2016-12-16T02:57:55.458Z,51.59
2016-12-16T02:58:55.437Z,51.21
2016-12-16T02:59:55.418Z,51.4
2016-12-16T03:00:55.403Z,50.65
2016-12-16T03:01:55.381Z,50.55
2016-12-16T03:02:55.704Z,50.84
2016-12-16T03:03:55.341Z,50.84
2016-12-16T03:04:55.735Z,50.84
2016-12-16T03:05:55.301Z,52.81
2016-12-16T03:06:55.282Z,53.76
2016-12-16T03:07:55.675Z,53.66
2016-12-16T03:08:55.244Z,53.85
2016-12-16T03:09:55.226Z,54.33
2016-12-16T03:10:55.220Z,56.21
2016-12-16T03:11:55.486Z,55.55
2016-12-16T03:12:55.490Z,55.08
2016-12-16T03:13:55.147Z,55.55
2016-12-16T03:14:55.551Z,54.89
2016-12-16T03:15:55.111Z,54.61
2016-12-16T03:16:55.091Z,55.18
2016-12-16T03:17:55.070Z,54.33
2016-12-16T03:18:55.055Z,55.65
2016-12-16T03:19:55.032Z,56.21
2016-12-16T03:20:55.038Z,58.19
2016-12-16T03:21:55.349Z,58.38
2016-12-16T03:22:54.973Z,56.87
2016-12-16T03:23:54.958Z,56.02
2016-12-16T03:24:54.936Z,54.99
2016-12-16T03:25:54.919Z,55.83
2016-12-16T03:26:54.895Z,56.21
2016-12-16T03:27:54.878Z,56.02
2016-12-16T03:28:54.859Z,56.3
2016-12-16T03:29:54.838Z,55.83
2016-12-16T03:30:54.817Z,55.36
2016-12-16T03:31:54.800Z,56.02
2016-12-16T03:32:54.788Z,55.83
2016-12-16T03:33:54.766Z,55.93
2016-12-16T03:34:54.741Z,56.59
2016-12-16T03:35:54.720Z,57.62
2016-12-16T03:36:54.704Z,57.06
2016-12-16T03:37:54.681Z,55.83
2016-12-16T03:38:54.664Z,55.65
2016-12-16T03:39:54.643Z,55.74
2016-12-16T03:40:54.625Z,55.46
2016-12-16T03:41:54.603Z,54.7
2016-12-16T03:42:54.584Z,55.08
2016-12-16T03:43:54.566Z,54.23
2016-12-16T03:44:54.545Z,54.61
2016-12-16T03:45:54.529Z,54.33
2016-12-16T03:46:54.510Z,53.76
2016-12-16T03:47:54.495Z,54.8
2016-12-16T03:48:54.470Z,56.87
2016-12-16T03:49:54.451Z,56.02
2016-12-16T03:50:54.429Z,55.46
2016-12-16T03:51:54.413Z,56.49
2016-12-16T03:52:54.390Z,57.15
2016-12-16T03:53:54.372Z,55.93
2016-12-16T03:54:54.355Z,52.72
2016-12-16T03:55:54.333Z,51.12
2016-12-16T03:56:54.311Z,50.18
2016-12-16T03:57:54.293Z,50.55
2016-12-16T03:58:54.277Z,50.93
2016-12-16T03:59:54.257Z,51.4
2016-12-16T04:00:54.233Z,52.62
2016-12-16T04:01:54.217Z,54.04
2016-12-16T04:02:54.199Z,54.99
2016-12-16T04:03:54.175Z,56.02
2016-12-16T04:04:54.157Z,56.02
2016-12-16T04:05:54.137Z,53.85
2016-12-16T04:06:54.120Z,53.85
2016-12-16T04:07:54.099Z,53.29
2016-12-16T04:08:54.079Z,53.76
2016-12-16T04:09:54.062Z,52.72
2016-12-16T04:10:54.040Z,51.97
2016-12-16T04:11:54.023Z,52.91
2016-12-16T04:12:54.000Z,53.1
2016-12-16T04:13:54.014Z,54.61
2016-12-16T04:14:53.965Z,54.23
2016-12-16T04:15:53.943Z,52.81
2016-12-16T04:16:53.923Z,53.95
2016-12-16T04:17:53.908Z,53.76
2016-12-16T04:18:53.884Z,52.81
2016-12-16T04:19:53.866Z,50.18
2016-12-16T04:20:53.847Z,51.21
2016-12-16T04:21:53.825Z,51.31
2016-12-16T04:22:53.807Z,51.87
2016-12-16T04:23:53.788Z,52.06
2016-12-16T04:24:53.768Z,52.06
2016-12-16T04:25:53.746Z,52.72
2016-12-16T04:26:53.727Z,53.47
2016-12-16T04:27:53.710Z,54.04
2016-12-16T04:28:53.689Z,54.04
2016-12-16T04:29:53.669Z,54.42
2016-12-16T04:30:53.650Z,55.18
2016-12-16T04:31:53.634Z,54.61
2016-12-16T04:32:53.613Z,53
2016-12-16T04:33:53.591Z,52.34
2016-12-16T04:34:53.572Z,52.72
2016-12-16T04:35:53.557Z,50.46
2016-12-16T04:36:53.534Z,49.8
2016-12-16T04:37:53.514Z,48.95
2016-12-16T04:38:53.499Z,48.57
2016-12-16T04:39:53.478Z,49.04
2016-12-16T04:40:53.775Z,49.89
2016-12-16T04:41:53.437Z,49.89
2016-12-16T04:42:53.418Z,46.69
2016-12-16T04:43:53.400Z,45.93
2016-12-16T04:44:53.379Z,46.03
2016-12-16T04:45:53.358Z,47.53
2016-12-16T04:46:53.340Z,48
2016-12-16T04:47:53.322Z,48.66
2016-12-16T04:48:53.305Z,49.14
2016-12-16T04:49:53.282Z,48
2016-12-16T04:50:53.261Z,48.1
2016-12-16T04:51:53.242Z,46.97
2016-12-16T04:52:53.224Z,47.72
2016-12-16T04:53:53.205Z,47.53
2016-12-16T04:54:53.183Z,46.5
2016-12-16T04:55:53.165Z,46.88
2016-12-16T04:56:53.144Z,46.97
2016-12-16T04:57:53.128Z,48.1
2016-12-16T04:58:53.105Z,48.29
2016-12-16T04:59:53.084Z,48.85
2016-12-16T05:00:53.070Z,48.38
2016-12-16T05:01:53.051Z,47.91
2016-12-16T05:02:53.028Z,45.65
2016-12-16T05:03:53.009Z,45.36
2016-12-16T05:04:52.991Z,46.22
2016-12-16T05:05:52.970Z,46.59
2016-12-16T05:06:52.951Z,47.34
2016-12-16T05:07:52.939Z,45.36
2016-12-16T05:08:52.910Z,44.42
2016-12-16T05:09:52.894Z,44.42
2016-12-16T05:10:52.878Z,43.76
2016-12-16T05:11:52.857Z,43.38
2016-12-16T05:12:52.838Z,43.95
2016-12-16T05:13:52.816Z,44.51
2016-12-16T05:14:52.797Z,44.04
2016-12-16T05:15:52.779Z,44.51
2016-12-16T05:16:52.759Z,44.04
2016-12-16T05:17:52.737Z,44.14
2016-12-16T05:18:52.719Z,44.61
2016-12-16T05:19:52.702Z,44.32
2016-12-16T05:20:52.681Z,45.08
2016-12-16T05:21:52.666Z,44.23
2016-12-16T05:22:52.642Z,43.85
2016-12-16T05:23:52.622Z,41.22
2016-12-16T05:24:52.604Z,41.31
2016-12-16T05:25:52.585Z,43.1
2016-12-16T05:26:52.567Z,44.32
2016-12-16T05:27:52.545Z,44.7
2016-12-16T05:28:52.527Z,46.03
2016-12-16T05:29:52.507Z,47.53
2016-12-16T05:30:52.491Z,48.85
2016-12-16T05:31:52.468Z,48.38
2016-12-16T05:32:52.448Z,49.89
2016-12-16T05:33:52.436Z,49.8
2016-12-16T05:34:52.409Z,49.04
2016-12-16T05:35:52.392Z,49.7
2016-12-16T05:36:52.373Z,50.84
2016-12-16T05:37:52.355Z,51.21
2016-12-16T05:38:52.334Z,51.97
2016-12-16T05:39:52.318Z,51.97
2016-12-16T05:40:52.297Z,52.15
2016-12-16T05:41:52.279Z,52.81
2016-12-16T05:42:52.257Z,53
2016-12-16T05:43:52.239Z,53.38
2016-12-16T05:44:52.248Z,53.1
2016-12-16T05:45:52.199Z,53.1
2016-12-16T05:46:52.182Z,53
2016-12-16T05:47:52.163Z,54.51
2016-12-16T05:48:52.147Z,53.95
2016-12-16T05:49:52.122Z,53.95
2016-12-16T05:50:52.107Z,54.42
2016-12-16T05:51:52.087Z,54.7
2016-12-16T05:52:52.067Z,54.42
2016-12-16T05:53:52.052Z,54.51
2016-12-16T05:54:52.028Z,54.33
2016-12-16T05:55:52.011Z,54.23
2016-12-16T05:56:51.988Z,53.95
2016-12-16T05:57:51.970Z,55.08
2016-12-16T05:58:51.952Z,54.99
2016-12-16T05:59:51.930Z,54.61
2016-12-16T06:00:51.911Z,54.33
2016-12-16T06:01:51.893Z,54.51
2016-12-16T06:02:51.874Z,54.51
2016-12-16T06:03:51.859Z,55.18
2016-12-16T06:04:51.835Z,55.93
2016-12-16T06:05:51.816Z,56.02
2016-12-16T06:06:51.793Z,55.27
2016-12-16T06:07:51.775Z,53
2016-12-16T06:08:51.756Z,49.51
2016-12-16T06:09:51.737Z,48.85
2016-12-16T06:10:51.719Z,44.8
2016-12-16T06:11:51.698Z,43.85
2016-12-16T06:12:51.685Z,39.7
2016-12-16T06:13:51.661Z,37.25
2016-12-16T06:14:51.639Z,37.35
2016-12-16T06:15:51.625Z,37.16
2016-12-16T06:16:51.605Z,37.73
2016-12-16T06:17:51.584Z,36.12
2016-12-16T06:18:51.562Z,35.46
2016-12-16T06:19:51.545Z,34.05
2016-12-16T06:20:51.836Z,32.54
2016-12-16T06:21:51.513Z,32.25
2016-12-16T06:22:51.486Z,33.76
2016-12-16T06:23:51.466Z,35.08
2016-12-16T06:24:51.448Z,36.69
2016-12-16T06:25:51.428Z,37.92
2016-12-16T06:26:51.409Z,36.78
2016-12-16T06:27:51.387Z,37.92
2016-12-16T06:28:51.373Z,39.51
2016-12-16T06:29:51.351Z,40.74
2016-12-16T06:30:51.331Z,41.69
2016-12-16T06:31:51.314Z,41.5
2016-12-16T06:32:51.293Z,41.5
2016-12-16T06:33:51.275Z,40.08
2016-12-16T06:34:51.258Z,39.89
2016-12-16T06:35:51.235Z,38.29
2016-12-16T06:36:51.531Z,38.76
2016-12-16T06:37:51.200Z,38.67
2016-12-16T06:38:51.178Z,38.48
2016-12-16T06:39:51.162Z,38.48
2016-12-16T06:40:51.141Z,40.01
2016-12-16T06:41:51.124Z,40.84
2016-12-16T06:42:51.100Z,41.42
2016-12-16T06:43:51.083Z,41.59
2016-12-16T06:44:51.063Z,41.31
2016-12-16T06:45:51.047Z,42.36
2016-12-16T06:46:51.024Z,40.74
2016-12-16T06:47:51.004Z,39.91
2016-12-16T06:48:50.992Z,39.82
2016-12-16T06:49:50.971Z,39.7
2016-12-16T06:50:50.960Z,40.58
2016-12-16T06:51:50.929Z,42.46
2016-12-16T06:52:50.913Z,42.65
2016-12-16T06:53:50.893Z,43.38
2016-12-16T06:54:50.873Z,43.66
2016-12-16T06:55:50.882Z,44.32
2016-12-16T06:56:50.836Z,45.74
2016-12-16T06:57:50.817Z,46.03
2016-12-16T06:58:50.793Z,45.74
2016-12-16T06:59:50.780Z,45.55
2016-12-16T07:00:50.760Z,43.76
2016-12-16T07:01:50.742Z,43.66
2016-12-16T07:02:50.720Z,42.16
2016-12-16T07:03:50.702Z,41.12
2016-12-16T07:04:50.687Z,42.07
2016-12-16T07:05:50.664Z,42.44
2016-12-16T07:06:50.643Z,42.72
2016-12-16T07:07:50.626Z,44.32
2016-12-16T07:08:50.610Z,45.08
2016-12-16T07:09:50.599Z,46.59
2016-12-16T07:10:50.568Z,47.25
2016-12-16T07:11:50.550Z,46.88
2016-12-16T07:12:50.529Z,47.06
2016-12-16T07:13:50.509Z,47.63
2016-12-16T07:14:50.493Z,49.04
2016-12-16T07:15:50.473Z,50.93
2016-12-16T07:16:50.776Z,51.31
2016-12-16T07:17:50.435Z,51.87
2016-12-16T07:18:50.440Z,52.15
2016-12-16T07:19:50.400Z,52.91
2016-12-16T07:20:50.380Z,51.21
2016-12-16T07:21:50.360Z,51.59
2016-12-16T07:22:50.342Z,51.59
2016-12-16T07:23:50.323Z,51.31
2016-12-16T07:24:50.301Z,51.4
2016-12-16T07:25:50.285Z,51.31
2016-12-16T07:26:50.266Z,51.03
2016-12-16T07:27:50.245Z,50.08
2016-12-16T07:28:50.228Z,50.84
2016-12-16T07:29:50.211Z,49.51
2016-12-16T07:30:50.189Z,48.29
2016-12-16T07:31:50.168Z,48.29
2016-12-16T07:32:50.150Z,49.61
2016-12-16T07:33:50.135Z,50.08
2016-12-16T07:34:50.111Z,48
2016-12-16T07:35:50.094Z,48.1
2016-12-16T07:36:50.076Z,48.38
2016-12-16T07:37:50.056Z,47.53
2016-12-16T07:38:50.039Z,48.29
2016-12-16T07:39:50.020Z,48.66
2016-12-16T07:40:49.997Z,47.06
2016-12-16T07:41:49.979Z,46.31
2016-12-16T07:42:49.960Z,45.08
2016-12-16T07:43:49.942Z,43.38
2016-12-16T07:44:49.926Z,43.1
2016-12-16T07:45:50.218Z,41.5
2016-12-16T07:46:49.881Z,40.08
2016-12-16T07:47:49.874Z,39.8
2016-12-16T07:48:49.845Z,40.46
2016-12-16T07:49:49.827Z,41.24
2016-12-16T07:50:49.810Z,41.61
2016-12-16T07:51:49.793Z,42.18
2016-12-16T07:52:49.769Z,43.22
2016-12-16T07:53:49.750Z,44.26
2016-12-16T07:54:49.731Z,44.45
2016-12-16T07:55:49.712Z,43.31
2016-12-16T07:56:50.007Z,42.46
2016-12-16T07:57:49.675Z,42.65
2016-12-16T07:58:49.656Z,43.41
2016-12-16T07:59:49.638Z,44.35
2016-12-16T08:00:49.618Z,43.88
2016-12-16T08:01:49.598Z,43.78
2016-12-16T08:02:49.584Z,44.07
2016-12-16T08:03:49.561Z,43.97
2016-12-16T08:04:49.542Z,44.92
2016-12-16T08:05:49.522Z,45.2
2016-12-16T08:06:49.503Z,44.07
2016-12-16T08:07:49.483Z,42.84
2016-12-16T08:08:49.465Z,40.58
2016-12-16T08:09:49.446Z,39.73
2016-12-16T08:10:49.427Z,40.2
2016-12-16T08:11:49.408Z,41.33
2016-12-16T08:12:49.389Z,41.61
2016-12-16T08:13:49.371Z,42.46
2016-12-16T08:14:49.349Z,42.84
2016-12-16T08:15:49.333Z,43.69
2016-12-16T08:16:49.313Z,43.78
2016-12-16T08:17:49.295Z,44.35
2016-12-16T08:18:49.276Z,44.82
2016-12-16T08:19:49.258Z,44.45
2016-12-16T08:20:49.242Z,44.16
2016-12-16T08:21:49.219Z,44.35
2016-12-16T08:22:49.203Z,45.1
2016-12-16T08:23:49.180Z,45.57
2016-12-16T08:24:49.173Z,45.48
2016-12-16T08:25:49.145Z,45.48
2016-12-16T08:26:49.125Z,46.04
2016-12-16T08:27:49.108Z,46.04
2016-12-16T08:28:49.087Z,46.04
2016-12-16T08:29:49.070Z,44.82
2016-12-16T08:30:49.050Z,44.16
2016-12-16T08:31:49.031Z,43.41
2016-12-16T08:32:49.012Z,42.36
2016-12-16T08:33:48.994Z,42.36
2016-12-16T08:34:48.976Z,42.65
2016-12-16T08:35:48.956Z,42.36
2016-12-16T08:36:48.938Z,41.52
2016-12-16T08:37:48.920Z,41.71
2016-12-16T08:38:48.900Z,41.52
2016-12-16T08:39:48.882Z,40.48
2016-12-16T08:40:48.865Z,38.31
2016-12-16T08:41:48.848Z,38.4
2016-12-16T08:42:48.825Z,38.21
2016-12-16T08:43:48.815Z,37.46
2016-12-16T08:44:48.789Z,37.93
2016-12-16T08:45:48.766Z,39.25
2016-12-16T08:46:48.750Z,39.63
2016-12-16T08:47:48.730Z,38.78
2016-12-16T08:48:48.713Z,39.44
2016-12-16T08:49:48.695Z,40.86
2016-12-16T08:50:48.678Z,42.27
2016-12-16T08:51:48.659Z,42.74
2016-12-16T08:52:48.638Z,43.5
2016-12-16T08:53:48.623Z,44.45
2016-12-16T08:54:48.604Z,44.07
2016-12-16T08:55:48.584Z,43.41
2016-12-16T08:56:48.564Z,42.36
2016-12-16T08:57:48.549Z,40.2
2016-12-16T08:58:48.528Z,37.84
2016-12-16T08:59:48.515Z,37.93
2016-12-16T09:00:48.489Z,37.46
2016-12-16T09:01:48.471Z,38.31
2016-12-16T09:02:48.450Z,38.5
2016-12-16T09:03:48.435Z,38.4
2016-12-16T09:04:48.414Z,38.97
2016-12-16T09:05:48.398Z,37.37
2016-12-16T09:06:48.385Z,37.27
2016-12-16T09:07:48.362Z,38.21
2016-12-16T09:08:48.340Z,38.59
2016-12-16T09:09:48.323Z,38.97
2016-12-16T09:10:48.305Z,39.73
2016-12-16T09:11:48.287Z,40.39
2016-12-16T09:12:48.267Z,40.39
2016-12-16T09:13:48.249Z,41.14
2016-12-16T09:14:48.231Z,40.2
2016-12-16T09:15:48.212Z,39.73
2016-12-16T09:16:48.194Z,39.82
2016-12-16T09:17:48.489Z,38.97
2016-12-16T09:18:48.157Z,38.4
2016-12-16T09:19:48.138Z,38.4
2016-12-16T09:20:48.121Z,38.4
2016-12-16T09:21:48.101Z,38.5
2016-12-16T09:22:48.086Z,39.35
2016-12-16T09:23:48.065Z,39.63
2016-12-16T09:24:48.047Z,40.39
2016-12-16T09:25:48.027Z,40.58
2016-12-16T09:26:48.011Z,39.25
2016-12-16T09:27:47.993Z,39.35
2016-12-16T09:28:47.974Z,39.37
2016-12-16T09:29:47.953Z,40.31
2016-12-16T09:30:47.935Z,39.75
2016-12-16T09:31:47.920Z,39.65
2016-12-16T09:32:47.901Z,40.41
2016-12-16T09:33:47.880Z,40.78
2016-12-16T09:34:47.863Z,41.25
2016-12-16T09:35:47.844Z,40.69
2016-12-16T09:36:47.822Z,39.75
2016-12-16T09:37:47.807Z,40.22
2016-12-16T09:38:47.789Z,40.59
2016-12-16T09:39:47.803Z,40.88
2016-12-16T09:40:47.751Z,40.97
2016-12-16T09:41:47.736Z,41.25
2016-12-16T09:42:47.714Z,41.06
2016-12-16T09:43:47.695Z,40.41
2016-12-16T09:44:47.679Z,40.12
2016-12-16T09:45:47.661Z,40.59
2016-12-16T09:46:47.640Z,39.84
2016-12-16T09:47:47.623Z,39.28
2016-12-16T09:48:47.605Z,39.94
2016-12-16T09:49:47.585Z,40.22
2016-12-16T09:50:47.569Z,39.94
2016-12-16T09:51:47.551Z,40.12
2016-12-16T09:52:47.532Z,40.59
2016-12-16T09:53:47.515Z,40.22
2016-12-16T09:54:47.498Z,39.56
2016-12-16T09:55:47.478Z,39.65
2016-12-16T09:56:47.463Z,40.59
2016-12-16T09:57:47.443Z,41.06
2016-12-16T09:58:47.422Z,40.69
2016-12-16T09:59:47.405Z,41.44
2016-12-16T10:00:47.394Z,40.69
2016-12-16T10:01:47.368Z,41.16
2016-12-16T10:02:47.354Z,40.59
2016-12-16T10:03:47.337Z,40.31
2016-12-16T10:04:47.314Z,40.22
2016-12-16T10:05:47.297Z,40.59
2016-12-16T10:06:47.280Z,41.25
2016-12-16T10:07:47.261Z,40.03
2016-12-16T10:08:47.244Z,39.56
2016-12-16T10:09:47.225Z,39.75
2016-12-16T10:10:47.206Z,39.28
2016-12-16T10:11:47.189Z,38.99
2016-12-16T10:12:47.173Z,39.28
2016-12-16T10:13:47.153Z,38.52
2016-12-16T10:14:47.135Z,37.67
2016-12-16T10:15:47.113Z,37.1
2016-12-16T10:16:47.099Z,37.1
2016-12-16T10:17:47.079Z,36.91
2016-12-16T10:18:47.068Z,36.16
2016-12-16T10:19:47.045Z,37.01
2016-12-16T10:20:47.025Z,35.59
2016-12-16T10:21:47.006Z,35.02
2016-12-16T10:22:46.991Z,42.77
2016-12-16T10:23:46.972Z,38.99
2016-12-16T10:24:46.955Z,38.23
2016-12-16T10:25:46.936Z,37.31
2016-12-16T10:26:46.922Z,36.07
2016-12-16T10:27:46.902Z,36.08
2016-12-16T10:28:46.884Z,36.27
2016-12-16T10:29:46.867Z,38.44
2016-12-16T10:30:46.848Z,37.69
2016-12-16T10:31:46.831Z,39.29
2016-12-16T10:32:46.813Z,38.82
2016-12-16T10:33:46.796Z,38.26
2016-12-16T10:34:46.778Z,38.07
2016-12-16T10:35:46.759Z,37.97
2016-12-16T10:36:46.750Z,36.08
2016-12-16T10:37:46.721Z,35.8
2016-12-16T10:38:46.704Z,35.33
2016-12-16T10:39:46.689Z,35.42
2016-12-16T10:40:46.670Z,34.76
2016-12-16T10:41:46.650Z,37.21
2016-12-16T10:42:46.634Z,38.07
2016-12-16T10:43:46.617Z,40.71
2016-12-16T10:44:46.599Z,40.61
2016-12-16T10:45:46.582Z,40.42
2016-12-16T10:46:46.564Z,39.86
2016-12-16T10:47:46.546Z,38.92
2016-12-16T10:48:46.525Z,39.48
2016-12-16T10:49:46.510Z,41.85
2016-12-16T10:50:46.494Z,36.55
2016-12-16T10:51:46.477Z,39.58
2016-12-16T10:52:46.455Z,38.63
2016-12-16T10:53:46.438Z,38.54
2016-12-16T10:54:46.420Z,36.36
2016-12-16T10:55:46.402Z,35.52
2016-12-16T10:56:46.393Z,34.95
2016-12-16T10:57:46.370Z,35.23
2016-12-16T10:58:46.350Z,35.42
2016-12-16T10:59:46.329Z,34.76
2016-12-16T11:00:46.313Z,39.11
2016-12-16T11:01:46.295Z,38.63
2016-12-16T11:02:46.277Z,42.22
2016-12-16T11:03:46.261Z,48.46
2016-12-16T11:04:46.243Z,52.7
2016-12-16T11:05:46.228Z,46.09
2016-12-16T11:06:46.208Z,44.49
2016-12-16T11:07:46.189Z,48.65
2016-12-16T11:08:46.173Z,44.21
2016-12-16T11:09:46.158Z,47.32
2016-12-16T11:10:46.139Z,45.9
2016-12-16T11:11:46.124Z,48.55
2016-12-16T11:12:46.105Z,44.87
2016-12-16T11:13:46.087Z,46.09
2016-12-16T11:14:46.386Z,44.77
2016-12-16T11:15:46.379Z,47.32
2016-12-16T11:16:46.032Z,49.78
2016-12-16T11:17:46.018Z,52.61
2016-12-16T11:18:45.999Z,56.2
2016-12-16T11:19:45.983Z,55.35
2016-12-16T11:20:45.965Z,52.33
2016-12-16T11:21:45.946Z,51.95
2016-12-16T11:22:45.927Z,59.41
2016-12-16T11:23:45.912Z,69.71
2016-12-16T11:24:45.896Z,57.05
2016-12-16T11:25:45.881Z,52.89
2016-12-16T11:26:45.894Z,51.57
2016-12-16T11:27:45.846Z,49.68
2016-12-16T11:28:45.831Z,48.93
2016-12-16T11:29:45.808Z,50.35
2016-12-16T11:30:45.789Z,51.95
2016-12-16T11:31:45.778Z,51.2
2016-12-16T11:32:45.755Z,51.48
2016-12-16T11:33:45.739Z,50.72
2016-12-16T11:34:45.723Z,48.27
2016-12-16T11:35:45.706Z,48.55
2016-12-16T11:36:45.689Z,52.8
2016-12-16T11:37:45.669Z,51.01
2016-12-16T11:38:45.653Z,48.65
2016-12-16T11:39:45.639Z,47.13
2016-12-16T11:40:45.619Z,47.99
2016-12-16T11:41:45.603Z,48.46
2016-12-16T11:42:45.586Z,48.2
2016-12-16T11:43:45.567Z,53.02
2016-12-16T11:44:45.549Z,52.14
2016-12-16T11:45:45.538Z,51.29
2016-12-16T11:46:45.827Z,53.84
2016-12-16T11:47:45.499Z,51.41
2016-12-16T11:48:45.483Z,52.7
2016-12-16T11:49:45.466Z,52.04
2016-12-16T11:50:45.449Z,52.07
2016-12-16T11:51:45.430Z,54.03
2016-12-16T11:52:45.415Z,50.94
2016-12-16T11:53:45.395Z,49.62
2016-12-16T11:54:45.389Z,50.06
2016-12-16T11:55:45.363Z,51.6
2016-12-16T11:56:45.343Z,54.34
2016-12-16T11:57:45.327Z,54.41
2016-12-16T11:58:45.310Z,51.86
2016-12-16T11:59:45.291Z,49.8
2016-12-16T12:00:45.278Z,50.37
2016-12-16T12:01:45.260Z,50.37
2016-12-16T12:02:45.267Z,49.02
2016-12-16T12:03:45.225Z,50.27
2016-12-16T12:04:45.209Z,49.8
2016-12-16T12:05:45.191Z,50.94
2016-12-16T12:06:45.174Z,50.56
2016-12-16T12:07:45.158Z,51.57
2016-12-16T12:08:45.145Z,51.88
2016-12-16T12:09:45.122Z,54.06
2016-12-16T12:10:45.104Z,52.73
2016-12-16T12:11:45.089Z,58.12
2016-12-16T12:12:45.073Z,57.46
2016-12-16T12:13:45.371Z,56.13
2016-12-16T12:14:45.040Z,54.53
2016-12-16T12:15:45.018Z,55.1
2016-12-16T12:16:45.002Z,54.25
2016-12-16T12:17:44.989Z,54.91
2016-12-16T12:18:44.968Z,55.76
2016-12-16T12:19:44.950Z,53.49
2016-12-16T12:20:44.937Z,57.27
2016-12-16T12:21:44.918Z,55.47
2016-12-16T12:22:44.903Z,55.19
2016-12-16T12:23:44.883Z,53.96
2016-12-16T12:24:44.865Z,54.81
2016-12-16T12:25:44.850Z,54.91
2016-12-16T12:26:44.832Z,52.92
2016-12-16T12:27:44.814Z,53.02
2016-12-16T12:28:44.798Z,54.53
2016-12-16T12:29:44.780Z,54.91
2016-12-16T12:30:44.767Z,54.62
2016-12-16T12:31:44.749Z,55.19
2016-12-16T12:32:44.730Z,55.66
2016-12-16T12:33:44.745Z,53.96
2016-12-16T12:34:44.695Z,55.85
2016-12-16T12:35:44.679Z,55.66
2016-12-16T12:36:44.662Z,55.38
2016-12-16T12:37:44.645Z,54.62
2016-12-16T12:38:44.627Z,57.08
2016-12-16T12:39:44.609Z,56.7
2016-12-16T12:40:44.597Z,55.94
2016-12-16T12:41:44.577Z,55.47
2016-12-16T12:42:44.559Z,55.66
2016-12-16T12:43:44.543Z,65.49
2016-12-16T12:44:44.525Z,65.4
2016-12-16T12:45:44.508Z,57.27
2016-12-16T12:46:44.489Z,59.25
2016-12-16T12:47:44.475Z,62.28
2016-12-16T12:48:44.457Z,58.22
2016-12-16T12:49:44.438Z,62.28
2016-12-16T12:50:44.424Z,57.84
2016-12-16T12:51:44.408Z,56.04
2016-12-16T12:52:44.389Z,55.47
2016-12-16T12:53:44.372Z,55.66
2016-12-16T12:54:44.353Z,54.81
2016-12-16T12:55:44.343Z,56.99
2016-12-16T12:56:44.322Z,65.68